Clayhatchee, Alabama
Current Conditions -  °F | °C
As of 3:58 PM on Monday 20 Oct 2014 (Local Time) from KOZR Reporting Station
Clear Clear  
Wind Chill: 25°   Ceiling: Unl
Heat Index: 26°   Visibility: 10mi
Dew Point: 12°   Wind: 5mph
Humidity: 45%   Direction: 260°W
Pressure: 29.98"   Gusts: NA
Location:  31.2347°N, 85.7586°W
Report Text: KOZR 202058Z AUTO 26004KT 10SM CLR 25/12 A2998 RMK AO2 PRESFR SLP153 T02460118
Loading
Personal Weather Stations






























Interactive Weather Map
Tropical Storm Tracking
New forecast layout! Learn more

10-Day Weather Forecast

Advertisements
Track Severe Weather on mobile